Time;durP1;ratioP1;P1;durP2;ratioP2;P2;SDS_P1;SDS_P2;PMS_P1;PMS_P2;Temp;Humidity;BMP_temperature;BMP_pressure;BME280_temperature;BME280_humidity;BME280_pressure;Samples;Min_cycle;Max_cycle;Signal;HPM_P1;HPM_P2
2021/04/17 00:00:20;;;;;;;3.47;1.60;;;20.00;58.90;;;;;;4208784;28;20032;-54
2021/04/17 00:02:23;;;;;;;3.78;2.05;;;20.00;58.90;;;;;;4209427;28;20040;-55
2021/04/17 00:04:27;;;;;;;4.93;1.73;;;20.00;59.20;;;;;;4193981;28;20122;-59
2021/04/17 00:06:29;;;;;;;4.28;2.00;;;20.00;59.20;;;;;;4204869;28;20040;-60
2021/04/17 00:08:32;;;;;;;3.05;1.63;;;20.00;59.20;;;;;;4206761;28;20028;-60
2021/04/17 00:10:34;;;;;;;17.60;2.00;;;20.00;59.30;;;;;;4208328;28;20431;-59
2021/04/17 00:12:36;;;;;;;6.40;2.10;;;20.00;59.30;;;;;;4211228;28;21256;-58
2021/04/17 00:14:40;;;;;;;12.55;2.00;;;20.00;59.40;;;;;;4206064;28;20040;-54
2021/04/17 00:16:43;;;;;;;5.85;1.70;;;20.10;59.60;;;;;;4210061;28;20053;-56
2021/04/17 00:18:45;;;;;;;6.55;1.80;;;20.10;59.70;;;;;;4207875;28;20447;-58
2021/04/17 00:20:48;;;;;;;4.87;1.90;;;20.10;59.70;;;;;;4204392;28;20071;-54
2021/04/17 00:22:50;;;;;;;12.07;2.03;;;20.10;59.80;;;;;;4208107;28;20829;-55
2021/04/17 00:24:52;;;;;;;7.63;1.65;;;20.10;59.80;;;;;;4205215;28;20040;-53
2021/04/17 00:26:55;;;;;;;6.55;1.98;;;20.10;59.80;;;;;;4209349;28;20333;-57
2021/04/17 00:28:57;;;;;;;5.60;1.60;;;20.20;59.70;;;;;;4208252;28;20413;-57
2021/04/17 00:30:59;;;;;;;6.10;2.30;;;20.20;59.70;;;;;;4212548;28;20073;-55
2021/04/17 00:33:02;;;;;;;3.83;1.80;;;20.20;59.70;;;;;;4202972;28;20678;-57
2021/04/17 00:35:05;;;;;;;4.47;1.88;;;20.20;59.70;;;;;;4205740;28;20024;-58
2021/04/17 00:37:07;;;;;;;3.88;1.80;;;20.20;59.60;;;;;;4202132;28;20039;-55
2021/04/17 00:39:10;;;;;;;7.13;2.10;;;20.20;59.70;;;;;;4206185;28;20040;-57
2021/04/17 00:41:12;;;;;;;4.85;1.90;;;20.30;60.50;;;;;;4210508;28;20110;-53
2021/04/17 00:43:14;;;;;;;5.82;1.85;;;20.30;59.70;;;;;;4206894;28;20036;-53
2021/04/17 00:45:16;;;;;;;4.22;1.58;;;20.30;59.80;;;;;;4207110;28;20093;-57
2021/04/17 00:47:18;;;;;;;4.78;1.90;;;20.30;59.70;;;;;;4201713;28;20388;-54
2021/04/17 00:49:20;;;;;;;9.80;2.10;;;20.30;59.70;;;;;;4209209;28;20027;-55
2021/04/17 00:51:22;;;;;;;6.40;2.50;;;20.30;58.80;;;;;;4205605;28;20397;-53
2021/04/17 00:53:25;;;;;;;7.50;2.30;;;20.30;57.40;;;;;;4205981;28;20055;-56
2021/04/17 00:55:27;;;;;;;4.88;1.83;;;20.30;57.60;;;;;;4206786;28;20024;-56
2021/04/17 00:57:29;;;;;;;3.65;2.10;;;20.30;56.80;;;;;;4212958;28;20048;-51
2021/04/17 00:59:31;;;;;;;4.78;1.92;;;20.20;56.40;;;;;;4205330;28;20044;-55
2021/04/17 01:01:33;;;;;;;6.03;2.60;;;20.20;56.30;;;;;;4215233;28;20124;-55
2021/04/17 01:03:54;;;;;;;4.47;2.00;;;20.20;56.20;;;;;;4202241;28;20084;-56
2021/04/17 01:06:06;;;;;;;4.75;2.08;;;20.20;56.30;;;;;;4203184;28;20031;-55
2021/04/17 01:08:24;;;;;;;6.72;2.20;;;20.10;56.30;;;;;;4205761;28;20039;-54
2021/04/17 01:10:47;;;;;;;3.15;2.10;;;20.20;56.30;;;;;;4209863;28;20027;-57
2021/04/17 01:12:54;;;;;;;3.85;2.20;;;20.10;56.30;;;;;;4207929;28;20035;-55
2021/04/17 01:14:57;;;;;;;4.80;2.10;;;20.10;56.20;;;;;;4196924;28;20044;-55
2021/04/17 01:17:01;;;;;;;6.97;2.35;;;20.10;56.50;;;;;;4206584;28;20023;-49
2021/04/17 01:19:09;;;;;;;7.30;2.10;;;20.10;56.90;;;;;;4204870;28;20028;-52
2021/04/17 01:21:12;;;;;;;6.25;1.90;;;20.10;57.00;;;;;;4203821;28;20036;-58
2021/04/17 01:23:40;;;;;;;5.30;2.10;;;20.20;57.20;;;;;;4209767;28;20076;-55
2021/04/17 01:25:54;;;;;;;8.50;2.50;;;20.20;57.10;;;;;;4207003;28;20028;-52
2021/04/17 01:27:56;;;;;;;5.10;2.00;;;20.10;57.10;;;;;;4208238;28;20036;-52
2021/04/17 01:29:59;;;;;;;7.20;2.10;;;20.20;57.10;;;;;;4208094;28;20424;-53
2021/04/17 01:32:02;;;;;;;8.70;2.83;;;20.20;57.00;;;;;;4204912;28;20152;-55
2021/04/17 01:34:06;;;;;;;8.98;2.42;;;20.20;56.70;;;;;;4206776;28;20070;-55
2021/04/17 01:36:09;;;;;;;6.35;2.30;;;20.20;56.60;;;;;;4208556;28;20055;-59
2021/04/17 01:38:23;;;;;;;5.78;2.20;;;20.20;56.60;;;;;;4204173;28;20024;-58
2021/04/17 01:40:28;;;;;;;7.53;1.85;;;20.20;56.70;;;;;;4208096;28;20091;-56
2021/04/17 01:42:30;;;;;;;6.53;2.25;;;20.20;56.60;;;;;;4205707;28;20130;-59
2021/04/17 01:44:36;;;;;;;3.78;1.98;;;20.20;56.60;;;;;;4207500;28;20042;-48
2021/04/17 01:46:51;;;;;;;8.00;2.10;;;20.20;56.90;;;;;;4205917;28;20306;-54
2021/04/17 01:49:00;;;;;;;9.55;2.03;;;20.20;56.90;;;;;;4207627;28;20035;-53
2021/04/17 01:51:02;;;;;;;8.55;2.25;;;20.10;56.90;;;;;;4202902;28;20497;-53
2021/04/17 01:53:09;;;;;;;6.93;1.80;;;20.10;56.80;;;;;;4197238;28;20138;-53
2021/04/17 01:55:12;;;;;;;4.00;1.77;;;20.10;56.70;;;;;;4190400;28;20024;-58
2021/04/17 01:57:23;;;;;;;7.63;2.20;;;20.20;56.90;;;;;;4190722;28;20028;-57
2021/04/17 01:59:28;;;;;;;6.13;2.03;;;20.20;56.90;;;;;;4191194;28;20143;-54
2021/04/17 02:01:30;;;;;;;6.90;2.25;;;20.20;56.90;;;;;;4195970;28;20083;-52
2021/04/17 02:03:33;;;;;;;3.40;1.83;;;20.10;56.80;;;;;;4199545;28;20251;-57
2021/04/17 02:05:35;;;;;;;6.10;1.70;;;20.10;56.70;;;;;;4206479;28;20541;-57
2021/04/17 02:07:37;;;;;;;8.05;2.20;;;20.10;57.20;;;;;;4206124;28;20560;-55
2021/04/17 02:09:40;;;;;;;7.15;2.15;;;20.10;57.00;;;;;;4210376;28;20204;-52
2021/04/17 02:11:42;;;;;;;3.58;1.90;;;20.10;57.10;;;;;;4198445;28;20132;-57
2021/04/17 02:13:44;;;;;;;4.80;1.88;;;20.10;56.90;;;;;;4189411;28;20024;-57
2021/04/17 02:15:48;;;;;;;4.55;2.00;;;20.10;56.60;;;;;;4192369;28;20119;-54
2021/04/17 02:18:01;;;;;;;4.95;1.85;;;20.10;56.50;;;;;;4196552;28;20032;-55
2021/04/17 02:20:07;;;;;;;5.35;1.90;;;20.10;56.30;;;;;;4189287;28;20036;-52
2021/04/17 02:22:10;;;;;;;5.18;2.08;;;20.10;56.30;;;;;;4207539;28;20069;-54
2021/04/17 02:24:12;;;;;;;4.80;1.85;;;20.10;56.20;;;;;;4205805;28;20480;-58
2021/04/17 02:26:14;;;;;;;4.30;1.52;;;20.10;56.30;;;;;;4207501;28;20484;-56
2021/04/17 02:28:16;;;;;;;2.42;1.70;;;20.10;56.50;;;;;;4193873;28;20144;-55
2021/04/17 02:30:19;;;;;;;5.03;1.93;;;20.10;56.50;;;;;;4206530;28;20036;-56
2021/04/17 02:32:22;;;;;;;4.30;1.95;;;20.10;56.30;;;;;;4212404;28;20052;-57
2021/04/17 02:34:24;;;;;;;7.63;2.03;;;20.10;56.50;;;;;;4210828;28;20027;-56
2021/04/17 02:36:27;;;;;;;8.20;2.58;;;20.10;56.60;;;;;;4201740;28;20036;-60
2021/04/17 02:38:29;;;;;;;5.03;1.90;;;20.10;56.70;;;;;;4209524;28;20043;-58
2021/04/17 02:40:31;;;;;;;6.05;2.25;;;20.10;56.40;;;;;;4208762;28;20054;-60
2021/04/17 02:42:33;;;;;;;3.95;1.88;;;20.10;57.80;;;;;;4203383;28;20119;-60
2021/04/17 02:44:36;;;;;;;8.13;2.28;;;20.10;57.40;;;;;;4204627;28;20416;-59
2021/04/17 02:46:38;;;;;;;7.82;2.58;;;20.10;57.70;;;;;;4211006;28;20027;-56
2021/04/17 02:48:41;;;;;;;10.32;2.28;;;20.10;57.90;;;;;;4206894;28;20101;-57
2021/04/17 02:50:43;;;;;;;8.35;2.20;;;20.20;58.20;;;;;;4211757;28;20044;-58
2021/04/17 02:52:45;;;;;;;4.32;1.63;;;20.20;58.20;;;;;;4212304;28;20031;-59
2021/04/17 02:54:47;;;;;;;4.13;1.85;;;20.20;58.20;;;;;;4212066;28;20373;-58
2021/04/17 02:56:49;;;;;;;3.60;1.70;;;20.30;58.20;;;;;;4207673;28;20035;-59
2021/04/17 02:58:51;;;;;;;5.13;1.70;;;20.30;58.90;;;;;;4209560;28;20058;-51
2021/04/17 03:00:53;;;;;;;8.95;2.40;;;20.30;58.30;;;;;;4205332;28;20350;-53
2021/04/17 03:02:55;;;;;;;7.88;1.65;;;20.30;58.30;;;;;;4208661;28;20139;-55
2021/04/17 03:04:57;;;;;;;4.63;1.67;;;20.30;57.60;;;;;;4203683;28;20391;-51
2021/04/17 03:07:00;;;;;;;7.25;2.20;;;20.30;57.30;;;;;;4209732;28;20052;-55
2021/04/17 03:09:02;;;;;;;6.07;1.95;;;20.30;56.30;;;;;;4208986;28;20036;-56
2021/04/17 03:11:05;;;;;;;5.32;1.80;;;20.30;56.20;;;;;;4210618;28;20134;-55
2021/04/17 03:13:07;;;;;;;8.48;1.95;;;20.30;56.00;;;;;;4206050;28;20028;-51
2021/04/17 03:15:10;;;;;;;7.22;2.25;;;20.20;55.80;;;;;;4205672;28;20038;-56
2021/04/17 03:17:14;;;;;;;5.18;1.50;;;20.20;55.70;;;;;;4208559;28;20042;-55
2021/04/17 03:19:16;;;;;;;5.28;2.00;;;20.20;55.70;;;;;;4211300;28;20047;-57
2021/04/17 03:21:19;;;;;;;4.95;2.10;;;20.20;55.70;;;;;;4208436;28;20455;-54
2021/04/17 03:23:21;;;;;;;4.90;2.17;;;20.20;55.50;;;;;;4212586;28;20515;-52
2021/04/17 03:25:23;;;;;;;5.53;2.10;;;20.20;55.50;;;;;;4206640;28;20020;-54
2021/04/17 03:27:25;;;;;;;6.10;2.15;;;20.20;55.50;;;;;;4207560;28;20051;-59
2021/04/17 03:29:27;;;;;;;7.55;2.20;;;20.20;55.60;;;;;;4206774;28;20119;-57
2021/04/17 03:31:29;;;;;;;7.88;2.25;;;20.20;56.00;;;;;;4203884;28;20028;-56
2021/04/17 03:33:31;;;;;;;7.50;2.53;;;20.20;56.50;;;;;;4207757;28;20032;-56
2021/04/17 03:35:34;;;;;;;6.70;2.13;;;20.20;56.90;;;;;;4203669;28;20492;-56
2021/04/17 03:37:37;;;;;;;5.07;2.30;;;20.20;57.00;;;;;;4210963;28;20031;-55
2021/04/17 03:39:39;;;;;;;5.28;2.13;;;20.20;57.30;;;;;;4192225;28;20436;-53
2021/04/17 03:41:41;;;;;;;8.23;1.92;;;20.30;57.50;;;;;;4190522;28;20069;-56
2021/04/17 03:43:43;;;;;;;4.82;2.08;;;20.30;57.60;;;;;;4190305;28;20031;-56
2021/04/17 03:45:45;;;;;;;3.95;1.83;;;20.30;57.90;;;;;;4192710;28;20047;-49
2021/04/17 03:47:48;;;;;;;4.80;2.20;;;20.30;57.90;;;;;;4192726;28;20044;-47
2021/04/17 03:49:50;;;;;;;4.07;1.95;;;20.40;58.20;;;;;;4182151;28;20028;-49
2021/04/17 03:51:52;;;;;;;6.50;1.95;;;20.40;58.20;;;;;;4205878;28;20521;-58
2021/04/17 03:53:54;;;;;;;6.03;2.13;;;20.40;58.40;;;;;;4195780;28;20039;-50
2021/04/17 03:55:56;;;;;;;7.38;2.00;;;20.40;58.40;;;;;;4202587;28;20028;-59
2021/04/17 03:57:59;;;;;;;7.32;2.22;;;20.40;58.50;;;;;;4195834;28;20576;-58
2021/04/17 04:00:02;;;;;;;5.90;1.90;;;20.40;58.50;;;;;;4198228;28;20032;-59
2021/04/17 04:02:04;;;;;;;;;;;20.40;58.40;;;;;;4190962;28;20114;-58
2021/04/17 04:04:06;;;;;;;4.20;1.70;;;20.40;58.40;;;;;;4191833;28;19955;-58
2021/04/17 04:06:08;;;;;;;11.43;2.72;;;20.40;58.40;;;;;;4195561;28;20127;-49
2021/04/17 04:08:10;;;;;;;4.18;1.92;;;20.40;58.50;;;;;;4197905;28;20047;-57
2021/04/17 04:10:15;;;;;;;6.93;1.90;;;20.50;58.50;;;;;;4191591;28;20037;-58
2021/04/17 04:12:17;;;;;;;5.03;1.83;;;20.50;58.60;;;;;;4202777;28;20444;-55
2021/04/17 04:14:19;;;;;;;5.00;1.85;;;20.50;58.80;;;;;;4202194;28;20119;-59
2021/04/17 04:16:21;;;;;;;7.32;1.92;;;20.50;58.80;;;;;;4213345;28;20035;-57
2021/04/17 04:18:23;;;;;;;5.28;2.00;;;20.50;58.80;;;;;;4205522;28;20038;-56
2021/04/17 04:20:25;;;;;;;4.45;1.95;;;20.50;58.90;;;;;;4207848;28;20039;-55
2021/04/17 04:22:28;;;;;;;4.22;1.83;;;20.60;58.90;;;;;;4207505;28;20118;-55
2021/04/17 04:24:30;;;;;;;7.50;2.53;;;20.60;58.90;;;;;;4207696;28;20431;-53
2021/04/17 04:26:32;;;;;;;12.07;2.30;;;20.60;58.70;;;;;;4208175;28;20032;-49
2021/04/17 04:28:34;;;;;;;11.65;2.38;;;20.60;58.80;;;;;;4206928;28;20065;-52
2021/04/17 04:30:36;;;;;;;5.15;2.03;;;20.60;58.80;;;;;;4208569;28;20059;-53
2021/04/17 04:32:38;;;;;;;4.43;1.98;;;20.60;58.60;;;;;;4205835;28;20419;-48
2021/04/17 04:34:40;;;;;;;6.35;2.30;;;20.60;57.30;;;;;;4217324;28;20106;-51
2021/04/17 04:36:42;;;;;;;5.63;2.10;;;20.60;57.20;;;;;;4202961;28;20032;-53
2021/04/17 04:38:44;;;;;;;4.82;2.20;;;20.50;57.80;;;;;;4210104;28;20425;-49
2021/04/17 04:40:47;;;;;;;4.40;1.95;;;20.50;57.80;;;;;;4208087;28;20095;-47
2021/04/17 04:42:49;;;;;;;6.25;1.90;;;20.50;58.00;;;;;;4204951;28;20058;-48
2021/04/17 04:44:51;;;;;;;4.32;2.22;;;20.60;58.20;;;;;;4188431;28;20037;-48
2021/04/17 04:46:53;;;;;;;2.92;1.77;;;20.60;57.90;;;;;;4212965;28;20038;-45
2021/04/17 04:48:55;;;;;;;3.08;1.70;;;20.60;57.80;;;;;;4208982;28;20035;-48
2021/04/17 04:50:57;;;;;;;4.22;1.98;;;20.60;58.00;;;;;;4210438;28;20097;-52
2021/04/17 04:52:59;;;;;;;3.17;1.60;;;20.60;58.20;;;;;;4207088;28;20214;-50
2021/04/17 04:55:02;;;;;;;10.68;2.33;;;20.60;58.40;;;;;;4206190;28;20047;-47
2021/04/17 04:57:04;;;;;;;4.82;1.83;;;20.60;58.60;;;;;;4211668;28;20485;-52
2021/04/17 04:59:06;;;;;;;3.20;1.52;;;20.60;58.60;;;;;;4205115;28;20566;-54
2021/04/17 05:01:09;;;;;;;3.42;1.60;;;20.70;58.70;;;;;;4196208;28;20484;-50
2021/04/17 05:03:11;;;;;;;6.68;1.92;;;20.70;58.80;;;;;;4205445;28;20073;-53
2021/04/17 05:05:14;;;;;;;5.00;1.77;;;20.70;58.90;;;;;;4207359;28;20050;-56
2021/04/17 05:07:16;;;;;;;3.47;1.88;;;20.70;58.90;;;;;;4206316;28;20109;-49
2021/04/17 05:09:19;;;;;;;5.93;2.20;;;20.80;59.00;;;;;;4207005;28;20093;-50
2021/04/17 05:11:21;;;;;;;4.13;1.52;;;20.80;59.00;;;;;;4204502;28;20531;-52
2021/04/17 05:13:23;;;;;;;4.70;1.98;;;20.80;59.00;;;;;;4213678;28;20035;-48
2021/04/17 05:15:25;;;;;;;3.70;1.60;;;20.70;58.90;;;;;;4204681;28;20032;-58
2021/04/17 05:17:27;;;;;;;12.15;1.63;;;20.80;59.00;;;;;;4208521;28;20122;-49
2021/04/17 05:19:29;;;;;;;3.70;1.42;;;20.80;59.00;;;;;;4203764;28;20020;-57
2021/04/17 05:21:32;;;;;;;5.65;2.00;;;20.80;59.00;;;;;;4206827;28;20047;-49
2021/04/17 05:23:34;;;;;;;4.70;1.77;;;20.80;59.20;;;;;;4210279;28;20178;-55
2021/04/17 05:25:36;;;;;;;3.72;1.60;;;20.80;59.30;;;;;;4207289;28;20032;-54
2021/04/17 05:27:38;;;;;;;4.07;1.60;;;20.80;59.20;;;;;;4205248;28;20121;-58
2021/04/17 05:29:40;;;;;;;4.93;1.67;;;20.80;59.10;;;;;;4206904;28;20058;-59
2021/04/17 05:31:42;;;;;;;6.90;1.90;;;20.80;59.10;;;;;;4210550;28;20342;-58
2021/04/17 05:33:44;;;;;;;4.07;1.40;;;20.80;59.00;;;;;;4202180;28;20051;-57
2021/04/17 05:35:47;;;;;;;6.43;1.60;;;20.90;59.00;;;;;;4211046;28;20050;-53
2021/04/17 05:37:49;;;;;;;2.63;1.40;;;20.90;59.10;;;;;;4207500;28;20024;-58
2021/04/17 05:39:51;;;;;;;2.47;1.50;;;20.90;59.10;;;;;;4204939;28;20063;-52
2021/04/17 05:41:53;;;;;;;3.92;1.50;;;20.90;59.00;;;;;;4205058;28;20231;-59
2021/04/17 05:43:55;;;;;;;3.88;1.70;;;20.90;59.00;;;;;;4211984;28;20100;-51
2021/04/17 05:45:57;;;;;;;5.45;1.95;;;20.90;59.50;;;;;;4206304;28;20036;-61
2021/04/17 05:47:59;;;;;;;6.97;2.17;;;20.90;59.00;;;;;;4211401;28;20138;-57
2021/04/17 05:50:02;;;;;;;4.63;1.63;;;20.90;57.80;;;;;;4210107;28;20016;-59
2021/04/17 05:52:04;;;;;;;6.55;1.92;;;20.90;57.00;;;;;;4206703;28;20054;-53
2021/04/17 05:54:07;;;;;;;4.93;1.80;;;20.80;56.30;;;;;;4208060;28;20519;-53
2021/04/17 05:56:10;;;;;;;3.78;1.83;;;20.80;56.20;;;;;;4206940;28;20502;-52
2021/04/17 05:58:12;;;;;;;5.13;1.80;;;20.80;55.90;;;;;;4211833;28;20106;-48
2021/04/17 06:00:14;;;;;;;5.10;2.08;;;20.80;55.80;;;;;;4205103;28;20496;-44
2021/04/17 06:02:16;;;;;;;8.45;1.63;;;20.70;55.60;;;;;;4208133;28;20044;-47
2021/04/17 06:04:18;;;;;;;3.58;1.45;;;20.70;55.60;;;;;;4207327;28;20499;-44
2021/04/17 06:06:21;;;;;;;4.32;1.80;;;20.70;55.90;;;;;;4207399;28;20031;-60
2021/04/17 06:08:23;;;;;;;9.40;2.05;;;20.70;55.80;;;;;;4201049;28;20119;-48
2021/04/17 06:10:25;;;;;;;5.40;1.60;;;20.70;55.60;;;;;;4210248;28;20441;-51
2021/04/17 06:12:27;;;;;;;6.80;1.85;;;20.60;55.70;;;;;;4206024;28;20048;-46
2021/04/17 06:14:29;;;;;;;7.78;1.65;;;20.60;55.90;;;;;;4208773;28;20093;-47
2021/04/17 06:16:31;;;;;;;6.07;1.65;;;20.70;56.10;;;;;;4203431;28;20055;-48
2021/04/17 06:18:34;;;;;;;4.00;1.67;;;20.70;56.20;;;;;;4210788;28;20756;-47
2021/04/17 06:20:36;;;;;;;3.85;1.52;;;20.70;56.00;;;;;;4203422;28;20040;-45
2021/04/17 06:22:38;;;;;;;4.15;1.70;;;20.70;55.90;;;;;;4206342;28;20386;-50
2021/04/17 06:24:40;;;;;;;7.03;1.75;;;20.70;55.90;;;;;;4202776;28;20182;-46
2021/04/17 06:26:43;;;;;;;4.22;1.40;;;20.70;56.40;;;;;;4205306;28;20473;-49
2021/04/17 06:28:45;;;;;;;7.18;1.92;;;20.70;56.70;;;;;;4187305;28;20047;-45
2021/04/17 06:30:47;;;;;;;6.22;1.92;;;20.70;56.90;;;;;;4205436;28;20046;-43
2021/04/17 06:32:50;;;;;;;3.72;1.73;;;20.80;57.00;;;;;;4206107;28;20067;-47
2021/04/17 06:34:52;;;;;;;6.57;1.83;;;20.80;56.80;;;;;;4206526;28;20020;-47
2021/04/17 06:36:54;;;;;;;3.08;1.40;;;20.80;56.80;;;;;;4205233;28;20529;-48
2021/04/17 06:38:56;;;;;;;5.00;1.83;;;20.80;56.80;;;;;;4203707;28;20041;-49
2021/04/17 06:41:01;;;;;;;4.80;1.77;;;20.80;56.70;;;;;;4207675;28;20020;-47
2021/04/17 06:43:05;;;;;;;3.17;1.40;;;20.80;56.60;;;;;;4202715;28;20289;-48
2021/04/17 06:45:08;;;;;;;4.97;1.75;;;20.80;56.50;;;;;;4201658;28;20051;-49
2021/04/17 06:47:16;;;;;;;6.93;2.00;;;20.80;56.50;;;;;;4202020;28;20042;-46
2021/04/17 06:49:18;;;;;;;5.00;1.90;;;20.80;56.40;;;;;;4210727;28;20111;-50
2021/04/17 06:51:22;;;;;;;4.65;1.75;;;20.80;56.40;;;;;;4202349;28;20044;-49
2021/04/17 06:53:26;;;;;;;3.42;1.88;;;20.80;55.90;;;;;;4210895;28;20044;-48
2021/04/17 06:55:28;;;;;;;3.55;1.60;;;20.80;56.10;;;;;;4204034;28;20044;-45
2021/04/17 06:57:31;;;;;;;4.40;1.50;;;20.80;56.50;;;;;;4210770;28;20160;-47
2021/04/17 06:59:33;;;;;;;5.30;1.83;;;20.80;56.60;;;;;;4208076;28;20131;-48
2021/04/17 07:01:41;;;;;;;2.60;1.40;;;20.80;56.90;;;;;;4201022;28;20032;-51
2021/04/17 07:03:43;;;;;;;3.67;1.88;;;20.80;57.10;;;;;;4192721;28;20151;-48
2021/04/17 07:05:46;;;;;;;3.00;1.40;;;20.80;57.20;;;;;;4207484;28;20146;-51
2021/04/17 07:07:48;;;;;;;4.03;1.43;;;20.90;57.00;;;;;;4209394;28;20579;-47
2021/04/17 07:09:51;;;;;;;2.25;1.42;;;20.90;57.20;;;;;;4209193;28;20252;-49
2021/04/17 07:11:53;;;;;;;2.67;1.50;;;20.90;57.30;;;;;;4204318;28;20032;-45
2021/04/17 07:14:06;;;;;;;4.05;1.80;;;20.90;57.50;;;;;;4210797;28;20028;-46
2021/04/17 07:16:12;;;;;;;5.35;1.85;;;20.90;57.60;;;;;;4186475;28;20099;-46
2021/04/17 07:18:29;;;;;;;4.65;1.73;;;20.90;57.70;;;;;;4192442;28;20134;-48
2021/04/17 07:20:31;;;;;;;4.18;1.48;;;21.00;57.90;;;;;;4193106;28;20036;-51
2021/04/17 07:22:41;;;;;;;4.32;1.80;;;20.90;57.90;;;;;;4193752;28;20059;-53
2021/04/17 07:24:43;;;;;;;10.77;1.95;;;20.90;57.90;;;;;;4193757;28;20068;-44
2021/04/17 07:26:45;;;;;;;3.42;1.48;;;20.90;58.10;;;;;;4193921;28;20101;-45
2021/04/17 07:29:14;;;;;;;4.07;1.80;;;21.00;57.30;;;;;;4195404;28;20051;-46
2021/04/17 07:31:16;;;;;;;3.30;1.48;;;20.90;56.20;;;;;;4196814;28;20114;-46
2021/04/17 07:33:29;;;;;;;5.22;2.03;;;20.90;56.20;;;;;;4195943;28;20040;-50
2021/04/17 07:35:51;;;;;;;12.50;2.20;;;20.90;56.30;;;;;;4189298;28;20149;-52
2021/04/17 07:38:23;;;;;;;6.78;1.95;;;20.80;56.40;;;;;;4203093;28;20143;-49
2021/04/17 07:40:27;;;;;;;10.80;1.88;;;20.80;56.60;;;;;;4205233;28;20131;-51
2021/04/17 07:42:36;;;;;;;8.90;1.83;;;20.80;56.80;;;;;;4206914;28;20052;-52
2021/04/17 07:44:44;;;;;;;5.85;1.73;;;20.80;56.90;;;;;;4207657;28;20329;-48
2021/04/17 07:46:47;;;;;;;6.22;1.55;;;20.80;57.00;;;;;;4208062;28;20036;-49
2021/04/17 07:48:49;;;;;;;6.97;1.53;;;20.80;57.10;;;;;;4209459;28;20039;-51
2021/04/17 07:50:51;;;;;;;15.25;2.47;;;20.80;57.20;;;;;;4208519;28;20047;-52
2021/04/17 07:52:53;;;;;;;6.53;1.67;;;20.80;57.60;;;;;;4208009;28;20366;-49
2021/04/17 07:55:04;;;;;;;3.55;1.60;;;20.80;57.60;;;;;;4212241;28;20071;-49
2021/04/17 07:57:12;;;;;;;6.25;1.52;;;20.80;57.60;;;;;;4205039;28;20040;-50
2021/04/17 07:59:18;;;;;;;6.05;1.20;;;20.80;57.60;;;;;;4213472;28;20031;-50
2021/04/17 08:01:22;;;;;;;4.65;1.40;;;20.80;57.70;;;;;;4210086;28;20108;-50
2021/04/17 08:03:24;;;;;;;5.90;1.77;;;20.80;57.90;;;;;;4211330;28;20120;-55
2021/04/17 08:05:27;;;;;;;3.75;1.48;;;20.80;58.00;;;;;;4204897;28;20123;-45
2021/04/17 08:07:30;;;;;;;6.82;1.80;;;20.80;58.00;;;;;;4209703;28;20092;-50
2021/04/17 08:09:32;;;;;;;;;;;20.90;58.10;;;;;;4203033;28;20565;-52
2021/04/17 08:11:35;;;;;;;4.53;2.35;;;20.90;58.20;;;;;;4208932;28;19912;-46
2021/04/17 08:13:42;;;;;;;7.05;2.00;;;20.90;58.20;;;;;;4218190;28;20135;-60
2021/04/17 08:15:44;;;;;;;10.90;2.88;;;20.90;58.20;;;;;;4217384;28;20039;-48
2021/04/17 08:17:49;;;;;;;12.83;3.60;;;20.90;58.20;;;;;;4214575;28;20051;-50
2021/04/17 08:19:56;;;;;;;11.68;4.03;;;20.90;58.30;;;;;;4217025;28;20059;-50
2021/04/17 08:21:58;;;;;;;12.00;7.22;;;20.80;57.90;;;;;;4196748;28;20115;-51
2021/04/17 08:24:01;;;;;;;10.88;8.50;;;20.80;57.00;;;;;;4207657;28;20418;-50
2021/04/17 08:26:04;;;;;;;11.70;8.13;;;20.80;56.50;;;;;;4202686;28;20024;-51
2021/04/17 08:28:16;;;;;;;;;;;20.80;56.60;;;;;;4212556;28;20023;-52
2021/04/17 08:30:27;;;;;;;10.93;7.97;;;20.70;56.50;;;;;;4208962;28;19922;-50
2021/04/17 08:32:39;;;;;;;10.95;8.00;;;20.70;56.50;;;;;;4207768;28;20106;-46
2021/04/17 08:35:00;;;;;;;12.85;8.30;;;20.70;56.50;;;;;;4208961;28;20062;-48
2021/04/17 08:37:06;;;;;;;11.52;8.60;;;20.70;56.60;;;;;;4190130;28;20039;-51
2021/04/17 08:39:28;;;;;;;11.30;8.55;;;20.60;56.50;;;;;;4190678;28;20052;-52
2021/04/17 08:41:38;;;;;;;10.00;7.95;;;20.60;56.50;;;;;;4194279;28;20094;-50
2021/04/17 08:43:40;;;;;;;9.93;8.18;;;20.60;56.60;;;;;;4194553;28;20029;-51
2021/04/17 08:46:11;;;;;;;11.70;8.85;;;20.60;56.60;;;;;;4190258;28;20032;-49
2021/04/17 08:48:13;;;;;;;11.82;8.75;;;20.60;56.60;;;;;;4196973;28;20039;-48
2021/04/17 08:50:25;;;;;;;14.38;9.50;;;20.50;56.50;;;;;;4192361;28;20135;-49
2021/04/17 08:52:27;;;;;;;10.27;8.75;;;20.50;56.50;;;;;;4176802;28;20029;-50
2021/04/17 08:54:29;;;;;;;11.82;8.80;;;20.50;56.60;;;;;;4205382;28;20044;-48
2021/04/17 08:57:03;;;;;;;13.13;8.50;;;20.50;56.60;;;;;;4202561;28;20049;-45
2021/04/17 08:59:09;;;;;;;14.75;8.95;;;20.50;56.60;;;;;;4207902;28;20105;-47
2021/04/17 09:01:11;;;;;;;9.80;8.43;;;20.50;56.60;;;;;;4206964;28;20068;-48
2021/04/17 09:03:39;;;;;;;10.70;9.32;;;20.50;56.60;;;;;;4203600;28;20769;-48
2021/04/17 09:05:46;;;;;;;11.18;7.80;;;20.40;56.60;;;;;;4200842;28;20035;-48
2021/04/17 09:08:08;;;;;;;10.20;7.75;;;20.40;56.50;;;;;;4212473;28;20031;-46
2021/04/17 09:10:32;;;;;;;9.27;7.47;;;20.40;56.60;;;;;;4208251;28;20340;-52
2021/04/17 09:12:34;;;;;;;8.38;7.43;;;20.40;56.60;;;;;;4188283;28;20037;-47
2021/04/17 09:14:36;;;;;;;9.60;8.38;;;20.40;56.60;;;;;;4203240;28;20058;-51
2021/04/17 09:16:40;;;;;;;11.27;8.60;;;20.40;56.60;;;;;;4210105;28;20130;-53
2021/04/17 09:18:42;;;;;;;9.80;7.93;;;20.40;56.60;;;;;;4212069;28;20756;-48
2021/04/17 09:20:44;;;;;;;11.23;8.25;;;20.40;56.60;;;;;;4206587;28;20043;-47
2021/04/17 09:22:48;;;;;;;9.15;8.18;;;20.40;56.60;;;;;;4205524;28;20035;-49
2021/04/17 09:24:51;;;;;;;9.95;7.45;;;20.30;56.60;;;;;;4203219;28;20174;-51
2021/04/17 09:26:53;;;;;;;9.15;7.60;;;20.30;56.60;;;;;;4211464;28;20035;-48
2021/04/17 09:28:59;;;;;;;10.10;7.97;;;20.30;56.60;;;;;;4207545;28;20563;-49
2021/04/17 09:31:02;;;;;;;9.38;7.65;;;20.30;56.60;;;;;;4197447;28;20172;-52
2021/04/17 09:33:06;;;;;;;8.38;7.47;;;20.30;56.60;;;;;;4206656;28;20288;-47
2021/04/17 09:35:18;;;;;;;10.18;7.97;;;20.30;56.60;;;;;;4210678;28;20576;-47
2021/04/17 09:37:21;;;;;;;10.43;7.77;;;20.30;56.60;;;;;;4208198;28;20066;-50
2021/04/17 09:39:27;;;;;;;8.88;7.07;;;20.20;56.60;;;;;;4203892;28;20619;-49
2021/04/17 09:41:51;;;;;;;8.35;7.50;;;20.20;56.60;;;;;;4209253;28;20056;-50
2021/04/17 09:43:55;;;;;;;9.45;7.43;;;20.20;56.60;;;;;;4210225;28;20028;-48
2021/04/17 09:46:15;;;;;;;8.45;7.25;;;20.20;56.60;;;;;;4206779;28;20045;-48
2021/04/17 09:48:21;;;;;;;9.25;7.10;;;20.20;56.60;;;;;;4208593;28;20051;-48
2021/04/17 09:50:25;;;;;;;10.05;7.43;;;20.20;56.60;;;;;;4205344;28;20032;-52
2021/04/17 09:52:28;;;;;;;9.55;7.15;;;20.20;56.60;;;;;;4208110;28;20028;-52
2021/04/17 09:54:30;;;;;;;8.13;7.13;;;20.20;56.70;;;;;;4203860;28;20109;-46
2021/04/17 09:56:38;;;;;;;8.40;6.65;;;20.20;56.70;;;;;;4202961;28;20040;-49
2021/04/17 09:58:45;;;;;;;8.68;6.97;;;20.10;56.70;;;;;;4213056;28;20020;-48
2021/04/17 10:00:47;;;;;;;8.88;6.55;;;20.20;56.70;;;;;;4208178;28;20458;-48
2021/04/17 10:02:49;;;;;;;7.32;6.00;;;20.20;56.80;;;;;;4204172;28;20074;-46
2021/04/17 10:04:54;;;;;;;8.32;6.05;;;20.10;56.80;;;;;;4204915;28;20098;-51
2021/04/17 10:07:00;;;;;;;8.82;6.30;;;20.10;56.80;;;;;;4206108;28;20689;-50
2021/04/17 10:09:11;;;;;;;7.15;5.78;;;20.10;56.80;;;;;;4203617;28;20044;-46
2021/04/17 10:11:35;;;;;;;7.18;6.45;;;20.10;56.80;;;;;;4206548;28;20562;-48
2021/04/17 10:13:47;;;;;;;7.65;6.82;;;20.10;56.80;;;;;;4208271;28;20385;-48
2021/04/17 10:15:49;;;;;;;7.22;5.88;;;20.10;56.80;;;;;;4205116;28;20039;-46
2021/04/17 10:17:53;;;;;;;7.05;5.63;;;20.10;56.80;;;;;;4186756;28;20071;-47
2021/04/17 10:19:55;;;;;;;8.98;6.50;;;20.00;56.80;;;;;;4212157;28;20316;-49
2021/04/17 10:22:00;;;;;;;6.80;5.88;;;20.10;56.80;;;;;;4204265;28;20032;-46
2021/04/17 10:24:21;;;;;;;7.40;5.53;;;20.00;56.80;;;;;;4205456;28;20515;-50
2021/04/17 10:26:23;;;;;;;7.70;6.10;;;20.00;56.80;;;;;;4203566;28;20086;-47
2021/04/17 10:28:26;;;;;;;6.88;5.28;;;20.00;56.80;;;;;;4204594;28;20330;-48
2021/04/17 10:30:31;;;;;;;6.93;5.57;;;20.00;56.80;;;;;;4204014;28;20042;-51
2021/04/17 10:32:38;;;;;;;6.75;5.25;;;20.00;56.80;;;;;;4204239;28;20382;-47
2021/04/17 10:34:45;;;;;;;7.20;6.10;;;20.00;56.80;;;;;;4211609;28;20047;-47
2021/04/17 10:37:03;;;;;;;6.88;5.65;;;20.00;56.80;;;;;;4204617;28;20063;-49
2021/04/17 10:39:11;;;;;;;6.97;5.88;;;19.90;56.80;;;;;;4204299;28;20229;-49
2021/04/17 10:41:27;;;;;;;7.20;5.32;;;20.00;56.80;;;;;;4202947;28;20028;-52
2021/04/17 10:43:30;;;;;;;7.72;5.20;;;20.00;56.80;;;;;;4204544;28;20069;-49
2021/04/17 10:45:32;;;;;;;6.80;5.30;;;20.00;56.80;;;;;;4207518;28;20128;-49
2021/04/17 10:47:34;;;;;;;6.05;5.07;;;19.90;56.80;;;;;;4206151;28;20031;-53